メインページ
METAR-TAF:

METAR-TAF

空港 :

百里飛行場, 日本

緯度: 36-11N, 経度: 140-25E, 海抜: 32m

現時点の気象観測

当レポートは40分前の08:00(UTC)に作成
無風
気温 6°C
湿度 56%
気圧 1019 hPa
視程10km以上
高度3000ftの雲はほとんどない
高度5000ftの千切れ雲あり

METAR: RJAH 130800Z 00000KT 9999 FEW030 BKN050 06/M02 Q1019

時間: 17:40 (08:40 UTC)

予報

当レポートは3時間34分前の05:06(UTC)に作成
予報は13日の 06時(UTC)から 14日の 12時(UTC)まで有効
南東の風 5kt
視程10km以上
高度3000ftの雲はほとんどない
13日の 16時(UTC)から 13日の 18時(UTC)まで徐々に
北西の風 12kt

TAF: RJAH 130506Z 1306/1412 14005KT 9999 FEW030 BECMG 1316/1318 32012KT

4,000以上の空港の気象観測と天気予報(METAR報とTAF報)

利用可能な観測所は地図上に黄色い丸と赤い丸で示す。

丸の上にカーソルを重ねると観測所名を参照できる。

次にクリックすると気象観測と天気予報を参照できる。

マップの切り替え:黒色「×」印の緑ボタンをクリックして拡大、「-」印の緑ボタンをクリックして縮小、緑色の三角印をクリックして隣りの地図に切り替え


METAR-TAF: